createdAt,value
2023-01-30T00:01:10.242Z,-0.07
2023-01-30T00:03:42.196Z,-0.08
2023-01-30T00:06:14.701Z,-0.12
2023-01-30T00:08:46.840Z,-0.12
2023-01-30T00:11:21.032Z,-0.09
2023-01-30T00:13:53.530Z,-0.06
2023-01-30T00:16:25.580Z,-0.10
2023-01-30T00:18:57.581Z,-0.10
2023-01-30T00:21:29.865Z,-0.16
2023-01-30T00:24:02.059Z,-0.17
2023-01-30T00:26:34.241Z,-0.14
2023-01-30T00:29:06.318Z,-0.14
2023-01-30T00:31:38.265Z,-0.12
2023-01-30T00:34:10.374Z,-0.07
2023-01-30T00:36:43.060Z,-0.06
2023-01-30T00:39:15.081Z,-0.03
2023-01-30T00:42:06.849Z,-0.04
2023-01-30T00:44:56.549Z,-0.03
2023-01-30T00:47:28.481Z,-0.04
2023-01-30T00:50:00.467Z,-0.03
2023-01-30T00:52:33.069Z,-0.02
2023-01-30T00:55:05.970Z,-0.02
2023-01-30T00:57:38.094Z,0.01
2023-01-30T01:00:11.173Z,0.03
2023-01-30T01:02:44.935Z,0.08
2023-01-30T01:05:17.604Z,0.08
2023-01-30T01:07:50.228Z,0.06
2023-01-30T01:10:22.725Z,0.08
2023-01-30T01:12:55.178Z,0.08
2023-01-30T01:15:28.009Z,0.11
2023-01-30T01:18:00.092Z,0.11
2023-01-30T01:20:32.435Z,0.13
2023-01-30T01:23:04.478Z,0.10
2023-01-30T01:25:36.543Z,0.08
2023-01-30T01:28:10.118Z,0.11
2023-01-30T01:30:42.046Z,0.08
2023-01-30T01:33:15.054Z,0.16
2023-01-30T01:35:47.987Z,0.05
2023-01-30T01:38:20.481Z,-0.02
2023-01-30T01:41:05.944Z,0.00
2023-01-30T01:43:41.893Z,0.00
2023-01-30T01:46:19.851Z,-0.05
2023-01-30T01:48:54.617Z,-0.05
2023-01-30T01:51:35.364Z,-0.03
2023-01-30T01:54:19.526Z,-0.01
2023-01-30T01:56:51.631Z,0.01
2023-01-30T01:59:28.905Z,0.17
2023-01-30T02:02:04.454Z,-0.02
2023-01-30T02:04:55.830Z,-0.06
2023-01-30T02:07:29.582Z,-0.11
2023-01-30T02:10:02.457Z,-0.12
2023-01-30T02:12:34.692Z,-0.13
2023-01-30T02:15:07.429Z,-0.14
2023-01-30T02:17:42.096Z,-0.13
2023-01-30T02:20:26.050Z,-0.13
2023-01-30T02:23:12.830Z,-0.13
2023-01-30T02:26:08.289Z,-0.08
2023-01-30T02:28:51.914Z,-0.06
2023-01-30T02:31:49.037Z,-0.15
2023-01-30T02:34:28.392Z,-0.15
2023-01-30T02:37:15.132Z,-0.15
2023-01-30T02:39:50.614Z,-0.13
2023-01-30T02:42:28.301Z,-0.11
2023-01-30T02:45:21.330Z,-0.15
2023-01-30T02:48:08.052Z,-0.14
2023-01-30T02:50:48.316Z,-0.16
2023-01-30T02:53:20.510Z,-0.15
2023-01-30T02:55:52.757Z,-0.16
2023-01-30T02:58:27.928Z,-0.14
2023-01-30T03:01:23.892Z,-0.14
2023-01-30T03:04:19.820Z,-0.17
2023-01-30T03:07:11.470Z,-0.13
2023-01-30T03:09:46.481Z,-0.10
2023-01-30T03:12:32.127Z,-0.10
2023-01-30T03:15:12.835Z,-0.10
2023-01-30T03:17:48.418Z,-0.11
2023-01-30T03:20:22.387Z,-0.12
2023-01-30T03:22:55.702Z,-0.12
2023-01-30T03:25:29.177Z,0.05
2023-01-30T03:28:03.664Z,-0.07
2023-01-30T03:30:36.478Z,-0.10
2023-01-30T03:33:10.541Z,-0.09
2023-01-30T03:35:43.787Z,-0.05
2023-01-30T03:38:18.386Z,-0.03
2023-01-30T03:40:51.010Z,-0.03
2023-01-30T03:43:23.135Z,0.04
2023-01-30T03:45:56.464Z,0.00
2023-01-30T03:48:28.927Z,0.00
2023-01-30T03:51:01.132Z,0.02
2023-01-30T03:53:33.577Z,0.01
2023-01-30T03:56:06.212Z,0.03
2023-01-30T03:58:39.413Z,0.03
2023-01-30T04:01:16.054Z,0.04
2023-01-30T04:03:48.746Z,0.03
2023-01-30T04:06:21.208Z,-0.01
2023-01-30T04:08:56.777Z,-0.01
2023-01-30T04:11:33.488Z,0.03
2023-01-30T04:14:05.850Z,0.08
2023-01-30T04:16:40.082Z,0.09
2023-01-30T04:19:17.307Z,0.11
2023-01-30T04:21:50.212Z,0.17
2023-01-30T04:24:23.228Z,0.11
2023-01-30T04:26:55.697Z,0.12
2023-01-30T04:29:29.798Z,0.13
2023-01-30T04:32:03.514Z,0.11
2023-01-30T04:34:37.752Z,0.12
2023-01-30T04:37:11.698Z,0.15
2023-01-30T04:39:44.577Z,0.15
2023-01-30T04:42:17.173Z,0.09
2023-01-30T04:44:51.295Z,0.08
2023-01-30T04:47:24.942Z,0.08
2023-01-30T04:49:57.008Z,0.25
2023-01-30T04:52:29.827Z,0.12
2023-01-30T04:55:03.150Z,0.11
2023-01-30T04:57:36.815Z,0.12
2023-01-30T05:00:10.207Z,0.13
2023-01-30T05:02:44.284Z,0.16
2023-01-30T05:05:17.425Z,0.16
2023-01-30T05:07:50.763Z,0.15
2023-01-30T05:10:23.764Z,0.11
2023-01-30T05:12:56.830Z,0.09
2023-01-30T05:15:29.034Z,0.09
2023-01-30T05:18:02.275Z,0.08
2023-01-30T05:20:34.806Z,0.10
2023-01-30T05:23:06.974Z,0.13
2023-01-30T05:25:39.349Z,0.15
2023-01-30T05:28:12.035Z,0.13
2023-01-30T05:30:46.326Z,0.18
2023-01-30T05:33:19.583Z,0.18
2023-01-30T05:35:53.282Z,0.21
2023-01-30T05:38:27.028Z,0.22
2023-01-30T05:41:09.633Z,0.30
2023-01-30T05:43:42.171Z,0.24
2023-01-30T05:46:14.937Z,0.27
2023-01-30T05:48:47.637Z,0.25
2023-01-30T05:51:23.441Z,0.22
2023-01-30T05:53:55.802Z,0.21
2023-01-30T05:56:30.882Z,0.22
2023-01-30T05:59:03.943Z,0.23
2023-01-30T06:01:36.353Z,0.26
2023-01-30T06:04:09.452Z,0.27
2023-01-30T06:06:41.928Z,0.30
2023-01-30T06:09:14.297Z,0.31
2023-01-30T06:11:46.505Z,0.33
2023-01-30T06:14:19.077Z,0.37
2023-01-30T06:16:51.995Z,0.46
2023-01-30T06:19:25.312Z,0.43
2023-01-30T06:21:57.853Z,0.49
2023-01-30T06:24:32.956Z,0.48
2023-01-30T06:27:06.836Z,0.50
2023-01-30T06:29:44.267Z,0.52
2023-01-30T06:32:16.079Z,0.67
2023-01-30T06:34:48.191Z,0.55
2023-01-30T06:37:20.564Z,0.54
2023-01-30T06:39:53.274Z,0.60
2023-01-30T06:42:25.731Z,0.59
2023-01-30T06:44:57.943Z,0.62
2023-01-30T06:47:30.600Z,0.67
2023-01-30T06:50:03.126Z,0.63
2023-01-30T06:52:35.315Z,0.59
2023-01-30T06:55:08.468Z,0.57
2023-01-30T06:57:41.189Z,0.57
2023-01-30T07:00:19.772Z,0.62
2023-01-30T07:02:52.313Z,0.63
2023-01-30T07:05:24.525Z,0.54
2023-01-30T07:07:57.220Z,0.46
2023-01-30T07:10:31.651Z,0.55
2023-01-30T07:13:05.132Z,0.46
2023-01-30T07:15:38.196Z,0.45
2023-01-30T07:18:10.797Z,0.45
2023-01-30T07:20:43.617Z,0.46
2023-01-30T07:23:15.922Z,0.52
2023-01-30T07:25:48.198Z,0.55
2023-01-30T07:28:21.053Z,0.58
2023-01-30T07:30:53.713Z,0.61
2023-01-30T07:33:26.040Z,0.64
2023-01-30T07:36:00.208Z,0.65
2023-01-30T07:38:32.669Z,0.68
2023-01-30T07:41:04.944Z,0.68
2023-01-30T07:43:36.947Z,0.70
2023-01-30T07:46:09.157Z,0.75
2023-01-30T07:48:41.717Z,0.79
2023-01-30T07:51:14.180Z,0.83
2023-01-30T07:53:48.386Z,0.83
2023-01-30T07:56:23.202Z,0.85
2023-01-30T07:58:56.959Z,0.87
2023-01-30T08:01:29.629Z,0.94
2023-01-30T08:04:02.120Z,0.99
2023-01-30T08:06:36.224Z,1.00
2023-01-30T08:09:08.992Z,1.02
2023-01-30T08:11:40.992Z,1.03
2023-01-30T08:14:13.181Z,1.06
2023-01-30T08:16:45.736Z,1.08
2023-01-30T08:19:18.343Z,1.13
2023-01-30T08:21:50.619Z,1.16
2023-01-30T08:24:23.162Z,1.21
2023-01-30T08:26:55.240Z,1.16
2023-01-30T08:29:27.586Z,1.19
2023-01-30T08:32:03.429Z,1.18
2023-01-30T08:34:36.658Z,1.16
2023-01-30T08:37:09.308Z,1.11
2023-01-30T08:39:42.157Z,1.09
2023-01-30T08:42:16.857Z,1.09
2023-01-30T08:44:50.580Z,1.11
2023-01-30T08:47:22.609Z,1.12
2023-01-30T08:49:54.851Z,1.14
2023-01-30T08:52:27.245Z,1.17
2023-01-30T08:54:59.555Z,1.21
2023-01-30T08:57:33.681Z,1.22
2023-01-30T09:00:07.050Z,1.26
2023-01-30T09:02:39.543Z,1.29
2023-01-30T09:05:12.073Z,1.33
2023-01-30T09:07:44.398Z,1.35
2023-01-30T09:10:17.505Z,1.40
2023-01-30T09:12:50.464Z,1.39
2023-01-30T09:15:22.613Z,1.43
2023-01-30T09:17:55.173Z,1.45
2023-01-30T09:20:27.917Z,1.47
2023-01-30T09:23:00.665Z,1.47
2023-01-30T09:25:33.204Z,1.49
2023-01-30T09:28:05.552Z,1.47
2023-01-30T09:30:37.872Z,1.48
2023-01-30T09:33:10.778Z,1.48
2023-01-30T09:35:43.966Z,1.51
2023-01-30T09:38:17.444Z,1.52
2023-01-30T09:40:55.631Z,1.53
2023-01-30T09:43:42.188Z,1.53
2023-01-30T09:46:34.732Z,1.53
2023-01-30T09:49:26.504Z,1.55
2023-01-30T09:52:16.856Z,1.58
2023-01-30T09:54:49.847Z,1.58
2023-01-30T09:57:27.373Z,1.59
2023-01-30T10:00:29.636Z,1.56
2023-01-30T10:03:13.725Z,1.55
2023-01-30T10:06:03.950Z,1.56
2023-01-30T10:08:42.670Z,1.56
2023-01-30T10:11:50.853Z,1.60
2023-01-30T10:14:41.073Z,1.56
2023-01-30T10:17:25.026Z,1.58
2023-01-30T10:20:02.492Z,1.58
2023-01-30T10:22:46.814Z,1.56
2023-01-30T10:25:43.645Z,1.56
2023-01-30T10:28:27.458Z,1.61
2023-01-30T10:31:08.632Z,1.65
2023-01-30T10:34:01.665Z,1.70
2023-01-30T10:36:45.589Z,1.82
2023-01-30T10:39:31.229Z,1.75
2023-01-30T10:42:15.187Z,1.90
2023-01-30T10:44:49.007Z,1.76
2023-01-30T10:47:29.776Z,1.75
2023-01-30T10:50:20.108Z,1.70
2023-01-30T10:53:02.153Z,1.70
2023-01-30T10:55:40.126Z,1.70
2023-01-30T10:58:15.215Z,1.73
2023-01-30T11:01:02.182Z,1.76
2023-01-30T11:03:59.511Z,1.78
2023-01-30T11:06:33.889Z,1.77
2023-01-30T11:09:06.143Z,1.75
2023-01-30T11:11:55.406Z,1.75
2023-01-30T11:14:27.990Z,1.77
2023-01-30T11:17:02.682Z,1.72
2023-01-30T11:19:37.691Z,1.69
2023-01-30T11:22:13.067Z,1.66
2023-01-30T11:24:47.217Z,1.68
2023-01-30T11:27:22.634Z,1.66
2023-01-30T11:30:06.775Z,1.64
2023-01-30T11:32:39.134Z,1.61
2023-01-30T11:35:17.423Z,1.60
2023-01-30T11:37:51.665Z,1.56
2023-01-30T11:40:30.983Z,1.53
2023-01-30T11:43:08.925Z,1.50
2023-01-30T11:45:46.875Z,1.48
2023-01-30T11:48:32.955Z,1.46
2023-01-30T11:51:04.711Z,1.46
2023-01-30T11:53:40.143Z,1.46
2023-01-30T11:56:21.745Z,1.48
2023-01-30T11:59:00.464Z,1.49
2023-01-30T12:01:35.812Z,1.50
2023-01-30T12:04:10.972Z,1.52
2023-01-30T12:06:45.276Z,1.55
2023-01-30T12:09:39.956Z,1.58
2023-01-30T12:12:34.220Z,1.57
2023-01-30T12:15:18.760Z,1.57
2023-01-30T12:18:17.047Z,1.58
2023-01-30T12:21:06.951Z,1.59
2023-01-30T12:24:10.387Z,1.58
2023-01-30T12:26:51.039Z,1.58
2023-01-30T12:29:34.678Z,1.72
2023-01-30T12:32:19.041Z,1.61
2023-01-30T12:34:52.807Z,1.59
2023-01-30T12:37:46.994Z,1.53
2023-01-30T12:40:54.423Z,1.52
2023-01-30T12:43:47.524Z,1.46
2023-01-30T12:46:37.287Z,1.42
2023-01-30T12:49:24.297Z,1.42
2023-01-30T12:52:08.416Z,1.42
2023-01-30T12:54:47.647Z,1.42
2023-01-30T12:57:25.543Z,1.51
2023-01-30T13:00:09.774Z,1.40
2023-01-30T13:02:48.043Z,1.34
2023-01-30T13:05:38.341Z,1.34
2023-01-30T13:08:31.726Z,1.26
2023-01-30T13:11:24.746Z,1.27
2023-01-30T13:13:59.907Z,1.24
2023-01-30T13:16:36.758Z,1.25
2023-01-30T13:19:40.410Z,1.26
2023-01-30T13:22:23.117Z,1.32
2023-01-30T13:25:23.632Z,1.31
2023-01-30T13:27:59.201Z,1.26
2023-01-30T13:30:34.118Z,1.23
2023-01-30T13:33:12.562Z,1.19
2023-01-30T13:35:48.002Z,1.17
2023-01-30T13:38:23.958Z,1.16
2023-01-30T13:40:59.999Z,1.14
2023-01-30T13:43:35.655Z,1.13
2023-01-30T13:46:13.828Z,1.14
2023-01-30T13:48:54.804Z,1.11
2023-01-30T13:51:55.414Z,1.15
2023-01-30T13:54:33.358Z,1.10
2023-01-30T13:57:34.236Z,1.08
2023-01-30T14:00:25.445Z,1.06
2023-01-30T14:03:09.320Z,1.09
2023-01-30T14:06:00.974Z,1.07
2023-01-30T14:08:35.888Z,1.03
2023-01-30T14:11:25.704Z,1.05
2023-01-30T14:14:00.765Z,1.04
2023-01-30T14:16:44.438Z,1.04
2023-01-30T14:19:41.715Z,1.03
2023-01-30T14:22:36.000Z,1.11
2023-01-30T14:25:28.053Z,1.14
2023-01-30T14:28:08.664Z,1.22
2023-01-30T14:30:52.935Z,1.11
2023-01-30T14:33:29.889Z,1.06
2023-01-30T14:36:10.850Z,1.21
2023-01-30T14:38:44.970Z,1.08
2023-01-30T14:41:28.782Z,1.09
2023-01-30T14:44:01.465Z,1.07
2023-01-30T14:46:54.221Z,1.10
2023-01-30T14:49:22.917Z,1.08
2023-01-30T14:51:56.403Z,1.07
2023-01-30T14:54:41.185Z,1.13
2023-01-30T14:57:21.085Z,1.12
2023-01-30T15:00:14.986Z,1.09
2023-01-30T15:02:36.659Z,1.07
2023-01-30T15:05:18.075Z,1.11
2023-01-30T15:08:08.079Z,1.13
2023-01-30T15:11:05.794Z,1.11
2023-01-30T15:13:57.334Z,1.17
2023-01-30T15:16:35.516Z,1.11
2023-01-30T15:19:20.226Z,1.14
2023-01-30T15:21:59.090Z,1.14
2023-01-30T15:24:52.903Z,1.23
2023-01-30T15:27:29.183Z,1.16
2023-01-30T15:30:22.903Z,1.14
2023-01-30T15:33:17.695Z,1.12
2023-01-30T15:35:48.337Z,1.17
2023-01-30T15:38:32.901Z,1.16
2023-01-30T15:41:05.640Z,1.21
2023-01-30T15:43:49.604Z,1.31
2023-01-30T15:46:36.484Z,1.25
2023-01-30T15:49:26.359Z,1.25
2023-01-30T15:52:04.992Z,1.22
2023-01-30T15:54:38.225Z,1.20
2023-01-30T15:57:13.450Z,1.23
2023-01-30T15:59:45.917Z,1.25
2023-01-30T16:02:30.034Z,1.20
2023-01-30T16:05:25.065Z,1.24
2023-01-30T16:07:59.266Z,1.29
2023-01-30T16:10:32.487Z,1.27
2023-01-30T16:13:06.424Z,1.32
2023-01-30T16:16:00.448Z,1.28
2023-01-30T16:18:41.331Z,1.35
2023-01-30T16:21:22.710Z,1.29
2023-01-30T16:24:03.674Z,1.31
2023-01-30T16:26:37.912Z,1.32
2023-01-30T16:29:15.887Z,1.35
2023-01-30T16:31:50.320Z,1.35
2023-01-30T16:34:32.037Z,1.33
2023-01-30T16:37:21.731Z,1.48
2023-01-30T16:40:03.074Z,1.37
2023-01-30T16:42:35.338Z,1.32
2023-01-30T16:45:18.388Z,1.43
2023-01-30T16:47:50.780Z,1.36
2023-01-30T16:50:24.628Z,1.38
2023-01-30T16:52:57.793Z,1.37
2023-01-30T16:55:29.995Z,1.39
2023-01-30T16:58:04.859Z,1.39
2023-01-30T17:00:39.680Z,1.41
2023-01-30T17:03:30.770Z,1.42
2023-01-30T17:06:13.089Z,1.42
2023-01-30T17:08:52.403Z,1.43
2023-01-30T17:11:42.591Z,1.44
2023-01-30T17:14:27.359Z,1.43
2023-01-30T17:17:10.061Z,1.46
2023-01-30T17:19:42.399Z,1.49
2023-01-30T17:22:19.784Z,1.53
2023-01-30T17:24:51.906Z,1.65
2023-01-30T17:27:24.828Z,1.59
2023-01-30T17:29:56.970Z,1.63
2023-01-30T17:32:29.223Z,1.59
2023-01-30T17:35:01.502Z,1.61
2023-01-30T17:37:33.598Z,1.64
2023-01-30T17:40:14.708Z,1.59
2023-01-30T17:42:50.235Z,1.59
2023-01-30T17:45:22.174Z,1.58
2023-01-30T17:47:54.127Z,1.59
2023-01-30T17:50:28.073Z,1.57
2023-01-30T17:53:00.046Z,1.56
2023-01-30T17:55:33.952Z,1.57
2023-01-30T17:58:06.967Z,1.51
2023-01-30T18:00:39.329Z,1.49
2023-01-30T18:03:11.617Z,1.47
2023-01-30T18:05:44.029Z,1.48
2023-01-30T18:08:16.761Z,1.48
2023-01-30T18:10:48.652Z,1.48
2023-01-30T18:13:21.379Z,1.48
2023-01-30T18:15:56.353Z,1.50
2023-01-30T18:18:28.634Z,1.46
2023-01-30T18:21:00.543Z,1.45
2023-01-30T18:23:32.691Z,1.43
2023-01-30T18:26:05.560Z,1.47
2023-01-30T18:28:37.773Z,1.54
2023-01-30T18:31:09.806Z,1.53
2023-01-30T18:33:43.637Z,1.47
2023-01-30T18:36:17.687Z,1.50
2023-01-30T18:38:50.475Z,1.53
2023-01-30T18:41:25.503Z,1.51
2023-01-30T18:43:59.672Z,1.51
2023-01-30T18:46:32.319Z,1.51
2023-01-30T18:49:04.504Z,1.49
2023-01-30T18:51:36.720Z,1.45
2023-01-30T18:54:09.000Z,1.43
2023-01-30T18:56:41.104Z,1.45
2023-01-30T18:59:13.272Z,1.46
2023-01-30T19:01:46.818Z,1.41
2023-01-30T19:04:19.155Z,1.36
2023-01-30T19:06:51.391Z,1.39
2023-01-30T19:09:23.819Z,1.37
2023-01-30T19:12:13.671Z,1.32
2023-01-30T19:14:45.780Z,1.32
2023-01-30T19:17:18.205Z,1.28
2023-01-30T19:19:50.181Z,1.29
2023-01-30T19:22:22.499Z,1.31
2023-01-30T19:24:54.863Z,1.30
2023-01-30T19:27:26.990Z,1.26
2023-01-30T19:29:59.469Z,1.22
2023-01-30T19:32:33.082Z,1.30
2023-01-30T19:35:05.762Z,1.22
2023-01-30T19:37:39.256Z,1.25
2023-01-30T19:40:12.415Z,1.16
2023-01-30T19:42:44.818Z,1.16
2023-01-30T19:45:17.185Z,1.13
2023-01-30T19:47:49.624Z,1.15
2023-01-30T19:50:21.833Z,1.11
2023-01-30T19:52:56.871Z,1.11
2023-01-30T19:55:29.299Z,1.13
2023-01-30T19:58:01.344Z,1.06
2023-01-30T20:00:35.701Z,1.00
2023-01-30T20:03:08.255Z,0.94
2023-01-30T20:05:44.004Z,0.97
2023-01-30T20:08:31.415Z,0.88
2023-01-30T20:10:49.920Z,0.84
2023-01-30T20:13:22.210Z,0.79
2023-01-30T20:15:55.218Z,0.77
2023-01-30T20:18:27.439Z,0.74
2023-01-30T20:21:00.980Z,0.73
2023-01-30T20:23:33.157Z,0.70
2023-01-30T20:26:09.835Z,0.74
2023-01-30T20:28:42.119Z,0.74
2023-01-30T20:31:16.249Z,0.70
2023-01-30T20:33:48.788Z,0.68
2023-01-30T20:36:22.294Z,0.67
2023-01-30T20:38:55.816Z,0.68
2023-01-30T20:41:28.801Z,0.72
2023-01-30T20:44:01.513Z,0.70
2023-01-30T20:46:42.722Z,0.71
2023-01-30T20:49:17.627Z,0.70
2023-01-30T20:51:51.742Z,0.69
2023-01-30T20:54:24.137Z,0.67
2023-01-30T20:56:57.193Z,0.77
2023-01-30T20:59:29.377Z,0.63
2023-01-30T21:02:02.004Z,0.61
2023-01-30T21:04:34.502Z,0.58
2023-01-30T21:07:06.481Z,0.66
2023-01-30T21:09:38.473Z,0.60
2023-01-30T21:12:11.772Z,0.57
2023-01-30T21:14:43.802Z,0.56
2023-01-30T21:17:16.771Z,0.56
2023-01-30T21:19:48.752Z,0.57
2023-01-30T21:22:20.870Z,0.57
2023-01-30T21:24:52.968Z,0.53
2023-01-30T21:27:25.057Z,0.52
2023-01-30T21:29:56.953Z,0.52
2023-01-30T21:32:28.960Z,0.49
2023-01-30T21:35:01.101Z,0.52
2023-01-30T21:37:51.093Z,0.49
2023-01-30T21:40:41.156Z,0.54
2023-01-30T21:43:16.166Z,0.52
2023-01-30T21:45:48.067Z,0.54
2023-01-30T21:48:20.259Z,0.54
2023-01-30T21:50:52.210Z,0.52
2023-01-30T21:53:24.188Z,0.53
2023-01-30T21:55:56.870Z,0.51
2023-01-30T21:58:34.432Z,0.49
2023-01-30T22:01:07.990Z,0.51
2023-01-30T22:03:40.136Z,0.48
2023-01-30T22:06:13.193Z,0.49
2023-01-30T22:08:45.245Z,0.49
2023-01-30T22:11:21.671Z,0.47
2023-01-30T22:13:54.953Z,0.45
2023-01-30T22:16:29.713Z,0.47
2023-01-30T22:19:04.482Z,0.51
2023-01-30T22:21:40.084Z,0.49
2023-01-30T22:24:12.377Z,0.47
2023-01-30T22:26:44.706Z,0.49
2023-01-30T22:29:18.225Z,0.49
2023-01-30T22:31:50.234Z,0.48
2023-01-30T22:34:22.737Z,0.47
2023-01-30T22:36:54.933Z,0.49
2023-01-30T22:39:27.050Z,0.46
2023-01-30T22:41:59.274Z,0.44
2023-01-30T22:44:31.708Z,0.44
2023-01-30T22:47:03.819Z,0.44
2023-01-30T22:49:35.870Z,0.42
2023-01-30T22:52:08.170Z,0.48
2023-01-30T22:54:40.641Z,0.44
2023-01-30T22:57:12.599Z,0.46
2023-01-30T22:59:44.544Z,0.45
2023-01-30T23:02:16.585Z,0.46
2023-01-30T23:04:50.561Z,0.45
2023-01-30T23:07:23.065Z,0.45
2023-01-30T23:09:55.074Z,0.45
2023-01-30T23:12:44.761Z,0.45
2023-01-30T23:15:17.118Z,0.48
2023-01-30T23:18:07.138Z,0.50
2023-01-30T23:20:39.156Z,0.51
2023-01-30T23:23:11.183Z,0.46
2023-01-30T23:25:43.559Z,0.48
2023-01-30T23:28:15.545Z,0.49
2023-01-30T23:30:47.654Z,0.46
2023-01-30T23:33:19.755Z,0.44
2023-01-30T23:35:51.609Z,0.45
2023-01-30T23:38:24.300Z,0.41
2023-01-30T23:40:57.810Z,0.42
2023-01-30T23:43:31.112Z,0.42
2023-01-30T23:46:26.853Z,0.40
2023-01-30T23:49:00.871Z,0.42
2023-01-30T23:51:33.517Z,0.38
2023-01-30T23:54:06.006Z,0.49
2023-01-30T23:56:40.388Z,0.40
2023-01-30T23:59:12.895Z,0.37
